Time;durP1;ratioP1;P1;durP2;ratioP2;P2;SDS_P1;SDS_P2;PMS_P1;PMS_P2;Temp;Humidity;BMP_temperature;BMP_pressure;BME280_temperature;BME280_humidity;BME280_pressure;Samples;Min_cycle;Max_cycle;Signal;HPM_P1;HPM_P2
2021/03/07 00:01:42;;;;;;;23.90;15.93;;;;;;;2.34;69.16;101522.93;1718469;83;21605;-70
2021/03/07 00:04:08;;;;;;;14.45;9.13;;;;;;;2.34;69.17;101531.67;1718668;83;21201;-70
2021/03/07 00:06:35;;;;;;;19.73;10.63;;;;;;;2.36;69.19;101528.47;1718294;83;21200;-70
2021/03/07 00:09:02;;;;;;;18.87;10.43;;;;;;;2.38;69.20;101530.56;1718649;82;21208;-70
2021/03/07 00:11:28;;;;;;;16.20;8.20;;;;;;;2.40;69.24;101523.88;1750574;81;21156;-70
2021/03/07 00:13:55;;;;;;;10.10;6.10;;;;;;;2.39;69.24;101522.20;1756592;81;21156;-70
2021/03/07 00:16:21;;;;;;;11.73;6.80;;;;;;;2.40;69.26;101514.20;1756411;81;21970;-70
2021/03/07 00:18:47;;;;;;;13.65;7.60;;;;;;;2.41;69.24;101513.73;1756394;81;21144;-70
2021/03/07 00:21:15;;;;;;;17.10;8.28;;;;;;;2.41;69.25;101513.27;1748266;81;21273;-70
2021/03/07 00:23:42;;;;;;;12.80;6.62;;;;;;;2.41;69.26;101515.91;1725627;83;21169;-70
2021/03/07 00:26:08;;;;;;;14.78;6.87;;;;;;;2.41;69.28;101510.64;1726314;82;21153;-70
2021/03/07 00:28:34;;;;;;;16.05;7.75;;;;;;;2.42;69.26;101507.55;1728320;81;21114;-70
2021/03/07 00:31:01;;;;;;;15.70;11.30;;;;;;;2.41;69.29;101509.33;1726375;83;21855;-71
2021/03/07 00:33:27;;;;;;;19.17;11.60;;;;;;;2.42;69.27;101508.86;1726504;81;21176;-70
2021/03/07 00:35:54;;;;;;;23.32;14.03;;;;;;;2.42;69.29;101500.50;1726177;82;21168;-70
2021/03/07 00:38:20;;;;;;;18.95;12.25;;;;;;;2.43;69.31;101503.48;1725580;81;21168;-70
2021/03/07 00:40:46;;;;;;;17.82;9.70;;;;;;;2.42;69.32;101497.87;1725402;83;21139;-70
2021/03/07 00:43:13;;;;;;;13.18;8.15;;;;;;;2.42;69.34;101495.23;1725360;83;21192;-70
2021/03/07 00:45:39;;;;;;;13.15;6.03;;;;;;;2.42;69.35;101481.22;1725212;83;21211;-71
2021/03/07 00:48:06;;;;;;;9.80;6.08;;;;;;;2.41;69.36;101483.00;1725254;83;21227;-70
2021/03/07 00:50:33;;;;;;;11.85;7.08;;;;;;;2.40;69.37;101481.30;1725236;83;21199;-70
2021/03/07 00:52:59;;;;;;;12.80;6.42;;;;;;;2.38;69.38;101473.98;1725362;83;21165;-70
2021/03/07 00:55:26;;;;;;;19.07;8.78;;;;;;;2.38;69.38;101476.61;1732055;81;21195;-70
2021/03/07 00:57:53;;;;;;;13.32;7.37;;;;;;;2.36;69.40;101477.15;1756421;81;21308;-70
2021/03/07 01:00:26;;;;;;;11.43;5.97;;;;;;;2.36;69.43;101467.09;1756403;81;21171;-71
2021/03/07 01:02:52;;;;;;;11.22;6.95;;;;;;;2.37;69.42;101457.80;1756110;81;21147;-71
2021/03/07 01:05:18;;;;;;;13.03;7.67;;;;;;;2.36;69.44;101452.14;1756426;81;21207;-70
2021/03/07 01:07:44;;;;;;;18.80;12.37;;;;;;;2.37;69.45;101446.41;1756019;81;21573;-71
2021/03/07 01:10:18;;;;;;;21.97;14.65;;;;;;;2.36;69.48;101445.56;1756425;81;21266;-71
2021/03/07 01:12:48;;;;;;;14.73;9.48;;;;;;;2.37;69.51;101440.69;1756258;81;21160;-71
2021/03/07 01:15:16;;;;;;;11.83;6.33;;;;;;;2.37;69.54;101440.69;1732376;81;21169;-71
2021/03/07 01:17:42;;;;;;;11.55;5.75;;;;;;;2.37;69.56;101431.94;1726300;83;21209;-71
2021/03/07 01:20:15;;;;;;;11.70;7.55;;;;;;;2.36;69.58;101431.09;1726070;83;21153;-71
2021/03/07 01:22:42;;;;;;;13.88;7.25;;;;;;;2.36;69.59;101432.41;1749537;82;22422;-71
2021/03/07 01:25:09;;;;;;;11.75;6.42;;;;;;;2.33;69.61;101428.64;1739946;81;21162;-71
2021/03/07 01:27:35;;;;;;;14.95;7.03;;;;;;;2.33;69.63;101422.06;1726642;83;21636;-71
2021/03/07 01:30:05;;;;;;;10.13;5.70;;;;;;;2.33;69.64;101417.27;1726645;82;21123;-71
2021/03/07 01:32:31;;;;;;;;;;;;;;;2.33;69.67;101412.00;1728840;83;21136;-71
2021/03/07 01:34:58;;;;;;;11.18;5.80;;;;;;;2.33;69.66;101401.02;1726731;83;21326;-71
2021/03/07 01:37:24;;;;;;;10.05;7.20;;;;;;;2.33;69.68;101407.59;1726487;83;21152;-71
2021/03/07 01:39:50;;;;;;;8.60;6.72;;;;;;;2.33;69.70;101398.38;1726480;83;22264;-71
2021/03/07 01:42:17;;;;;;;15.83;11.00;;;;;;;2.35;69.70;101396.98;1726510;83;21180;-71
2021/03/07 01:44:43;;;;;;;15.85;10.18;;;;;;;2.35;69.74;101385.99;1726571;83;21191;-71
2021/03/07 01:47:09;;;;;;;9.20;6.65;;;;;;;2.36;69.76;101381.08;1726482;83;21270;-71
2021/03/07 01:49:36;;;;;;;15.03;8.75;;;;;;;2.36;69.79;101381.55;1726467;83;21577;-71
2021/03/07 01:52:02;;;;;;;14.87;7.37;;;;;;;2.34;69.83;101372.45;1727118;81;21137;-71
2021/03/07 01:54:28;;;;;;;10.05;5.70;;;;;;;2.32;69.86;101366.41;1726332;83;21176;-71
2021/03/07 01:56:55;;;;;;;10.00;5.47;;;;;;;2.32;69.87;101359.83;1726698;83;21152;-71
2021/03/07 01:59:21;;;;;;;11.60;6.60;;;;;;;2.33;69.88;101360.22;1726567;83;21603;-72
2021/03/07 02:01:48;;;;;;;13.10;5.87;;;;;;;2.33;69.91;101357.59;1726411;83;21208;-72
2021/03/07 02:04:15;;;;;;;9.95;6.22;;;;;;;2.34;69.95;101357.97;1726479;83;21173;-70
2021/03/07 02:06:42;;;;;;;8.28;4.90;;;;;;;2.33;69.99;101356.73;1726126;83;21192;-70
2021/03/07 02:09:09;;;;;;;12.33;5.60;;;;;;;2.35;69.99;101353.09;1726588;83;21177;-70
2021/03/07 02:11:37;;;;;;;10.82;8.15;;;;;;;2.38;70.05;101355.53;1743047;81;22117;-70
2021/03/07 02:14:06;;;;;;;16.37;10.50;;;;;;;2.38;70.05;101350.27;1752695;81;21584;-70
2021/03/07 02:16:32;;;;;;;12.82;7.78;;;;;;;2.37;70.10;101343.30;1726499;83;21623;-70
2021/03/07 02:18:59;;;;;;;14.15;10.25;;;;;;;2.38;70.15;101346.32;1726336;83;21212;-70
2021/03/07 02:21:34;;;;;;;11.05;7.03;;;;;;;2.38;70.18;101339.73;1727600;81;21602;-70
2021/03/07 02:24:07;;;;;;;11.53;6.75;;;;;;;2.37;70.23;101340.67;1724829;83;21167;-70
2021/03/07 02:26:48;;;;;;;8.70;5.25;;;;;;;2.38;70.25;101341.05;1726441;83;21180;-71
2021/03/07 02:29:15;;;;;;;10.13;5.95;;;;;;;2.38;70.27;101334.48;1726303;83;21165;-71
2021/03/07 02:31:47;;;;;;;8.00;5.10;;;;;;;2.39;70.32;101333.52;1726556;83;21196;-71
2021/03/07 02:34:35;;;;;;;7.95;5.17;;;;;;;2.40;70.34;101331.73;1726092;83;21157;-71
2021/03/07 02:37:08;;;;;;;6.67;5.30;;;;;;;2.39;70.38;101326.11;1726580;83;21221;-71
2021/03/07 02:39:39;;;;;;;8.18;4.95;;;;;;;2.40;70.40;101325.16;1726635;83;21193;-71
2021/03/07 02:42:21;;;;;;;10.00;6.60;;;;;;;2.39;70.42;101323.48;1726931;81;21602;-71
2021/03/07 02:45:06;;;;;;;14.63;10.53;;;;;;;2.39;70.46;101327.43;1726510;83;21244;-71
2021/03/07 02:47:34;;;;;;;13.95;10.98;;;;;;;2.37;70.47;101315.66;1732734;81;21147;-71
2021/03/07 02:50:08;;;;;;;10.82;6.33;;;;;;;2.36;70.48;101317.91;1756666;81;21201;-71
2021/03/07 02:52:36;;;;;;;10.95;5.62;;;;;;;2.37;70.49;101311.72;1756608;81;21632;-71
2021/03/07 02:55:03;;;;;;;6.70;4.72;;;;;;;2.37;70.52;101313.03;1756310;81;21584;-71
2021/03/07 02:57:31;;;;;;;10.88;5.50;;;;;;;2.39;70.52;101307.19;1756670;81;21175;-70
2021/03/07 02:59:58;;;;;;;12.63;6.65;;;;;;;2.39;70.56;101301.92;1756617;81;21463;-71
2021/03/07 03:02:27;;;;;;;7.05;4.87;;;;;;;2.40;70.57;101297.05;1756483;81;21262;-71
2021/03/07 03:04:53;;;;;;;6.87;5.12;;;;;;;2.41;70.58;101294.80;1710267;83;21885;-71
2021/03/07 03:07:20;;;;;;;7.12;4.70;;;;;;;2.40;70.59;101290.47;1726742;83;21161;-71
2021/03/07 03:09:46;;;;;;;8.38;5.47;;;;;;;2.37;70.60;101284.08;1705931;83;21177;-70
2021/03/07 03:12:13;;;;;;;6.83;4.70;;;;;;;2.37;70.60;101280.60;1726635;83;21177;-71
2021/03/07 03:14:39;;;;;;;7.20;5.00;;;;;;;2.37;70.58;101285.41;1726667;83;21220;-70
2021/03/07 03:17:05;;;;;;;12.13;6.53;;;;;;;2.37;70.61;101279.28;1726531;83;21645;-71
2021/03/07 03:19:34;;;;;;;8.83;7.15;;;;;;;2.37;70.60;101274.88;1726569;83;21189;-71
2021/03/07 03:22:01;;;;;;;10.55;6.97;;;;;;;2.38;70.62;101276.57;1726565;83;21128;-71
2021/03/07 03:24:27;;;;;;;14.03;8.50;;;;;;;2.39;70.60;101282.19;1726328;83;21217;-71
2021/03/07 03:27:03;;;;;;;11.20;7.50;;;;;;;2.39;70.60;101280.87;1733811;82;22135;-71
2021/03/07 03:29:30;;;;;;;6.17;5.53;;;;;;;2.39;70.62;101269.03;1739658;82;21160;-72
2021/03/07 03:31:58;;;;;;;10.10;6.22;;;;;;;2.40;70.65;101272.05;1739636;82;21176;-71
2021/03/07 03:34:24;;;;;;;8.58;5.75;;;;;;;2.41;70.67;101271.58;1739653;82;21156;-71
2021/03/07 03:36:50;;;;;;;9.38;5.35;;;;;;;2.40;70.68;101263.30;1739913;81;21626;-71
2021/03/07 03:39:21;;;;;;;8.93;5.92;;;;;;;2.39;70.68;101257.68;1739691;82;21212;-71
2021/03/07 03:41:52;;;;;;;11.45;5.87;;;;;;;2.38;70.68;101259.46;1738658;82;21180;-71
2021/03/07 03:44:25;;;;;;;9.53;5.33;;;;;;;2.38;70.71;101259.93;1739802;82;21153;-71
2021/03/07 03:46:53;;;;;;;10.88;6.25;;;;;;;2.38;70.70;101259.46;1741660;81;21121;-71
2021/03/07 03:49:34;;;;;;;17.10;11.55;;;;;;;2.39;70.71;101262.45;1770308;81;21215;-71
2021/03/07 03:52:06;;;;;;;16.10;10.60;;;;;;;2.40;70.74;101258.88;1728140;81;21316;-71
2021/03/07 03:54:44;;;;;;;16.73;10.05;;;;;;;2.39;70.75;101262.45;1709096;83;21703;-71
2021/03/07 03:57:11;;;;;;;10.78;7.62;;;;;;;2.38;70.76;101255.52;1767448;81;21151;-71
2021/03/07 03:59:37;;;;;;;12.00;8.53;;;;;;;2.38;70.80;101250.25;1767859;81;21131;-71
2021/03/07 04:02:03;;;;;;;13.70;8.40;;;;;;;2.37;70.81;101251.19;1767905;81;21155;-71
2021/03/07 04:04:30;;;;;;;12.10;7.20;;;;;;;2.37;70.83;101253.81;1767772;81;21280;-71
2021/03/07 04:06:56;;;;;;;8.88;6.83;;;;;;;2.37;70.84;101240.66;1744375;81;21196;-71
2021/03/07 04:09:23;;;;;;;10.88;7.12;;;;;;;2.36;70.88;101245.54;1737282;82;21161;-71
2021/03/07 04:11:50;;;;;;;11.65;7.17;;;;;;;2.37;70.93;101235.39;1737467;82;21216;-72
2021/03/07 04:14:17;;;;;;;10.88;7.30;;;;;;;2.38;70.95;101246.77;1737350;82;21188;-71
2021/03/07 04:16:46;;;;;;;12.73;7.78;;;;;;;2.38;71.05;101241.50;1737383;82;21255;-71
2021/03/07 04:19:13;;;;;;;14.95;8.23;;;;;;;2.38;71.07;101246.77;1737231;82;21181;-71
2021/03/07 04:21:39;;;;;;;20.02;13.32;;;;;;;2.37;71.10;101242.44;1737306;82;21161;-71
2021/03/07 04:24:07;;;;;;;13.98;9.93;;;;;;;2.37;71.14;101247.23;1737134;82;21212;-71
2021/03/07 04:26:33;;;;;;;23.05;15.38;;;;;;;2.37;71.17;101240.66;1732628;82;21133;-71
2021/03/07 04:29:00;;;;;;;14.33;9.15;;;;;;;2.38;71.22;101237.56;1719636;83;21216;-71
2021/03/07 04:31:27;;;;;;;9.88;8.10;;;;;;;2.38;71.24;101234.45;1688412;83;21149;-71
2021/03/07 04:33:53;;;;;;;14.50;9.45;;;;;;;2.38;71.28;101233.14;1720183;82;21169;-71
2021/03/07 04:36:19;;;;;;;192.05;65.22;;;;;;;2.37;71.32;101238.02;1719793;83;21185;-71
2021/03/07 04:38:45;;;;;;;59.80;18.95;;;;;;;2.37;71.35;101228.81;1719355;83;21170;-72
2021/03/07 04:41:12;;;;;;;22.95;10.40;;;;;;;2.36;71.39;101233.69;1689425;83;21226;-71
2021/03/07 04:43:52;;;;;;;24.65;9.30;;;;;;;2.36;71.42;101225.80;1720724;83;21167;-71
2021/03/07 04:46:22;;;;;;;14.33;7.62;;;;;;;2.34;71.44;101226.84;1700598;84;21147;-71
2021/03/07 04:48:49;;;;;;;;;;;;;;;2.33;71.47;101218.10;1732800;82;21203;-71
2021/03/07 04:51:16;;;;;;;13.78;6.70;;;;;;;2.33;71.49;101218.10;1730172;82;20280;-72
2021/03/07 04:53:43;;;;;;;12.13;5.72;;;;;;;2.33;71.54;101218.10;1730326;82;21275;-71
2021/03/07 04:56:09;;;;;;;20.27;8.80;;;;;;;2.33;71.58;101218.10;1700501;84;21175;-71
2021/03/07 04:58:35;;;;;;;18.77;13.20;;;;;;;2.32;71.63;101207.19;1730127;82;21224;-71
2021/03/07 05:01:03;;;;;;;23.15;17.30;;;;;;;2.31;71.69;101205.99;1730212;82;22004;-71
2021/03/07 05:03:30;;;;;;;20.08;14.55;;;;;;;2.30;71.73;101205.14;1721611;82;21137;-71
2021/03/07 05:05:57;;;;;;;15.68;9.60;;;;;;;2.28;71.76;101205.73;1719562;82;22321;-71
2021/03/07 05:08:25;;;;;;;12.63;7.50;;;;;;;2.28;71.78;101200.93;1719445;83;21157;-71
2021/03/07 05:10:53;;;;;;;14.80;8.43;;;;;;;2.28;71.84;101197.83;1719797;83;21177;-71
2021/03/07 05:13:19;;;;;;;11.53;7.87;;;;;;;2.29;71.85;101198.18;1719623;83;21181;-72
2021/03/07 05:15:45;;;;;;;15.23;8.30;;;;;;;2.29;71.92;101188.12;1719473;83;21678;-72
2021/03/07 05:18:12;;;;;;;13.78;8.15;;;;;;;2.29;71.95;101182.39;1719588;83;21254;-72
2021/03/07 05:20:38;;;;;;;14.47;8.75;;;;;;;2.29;71.98;101181.55;1719543;83;21622;-72
2021/03/07 05:23:04;;;;;;;12.85;8.20;;;;;;;2.28;72.01;101175.46;1719584;83;21193;-72
2021/03/07 05:25:31;;;;;;;10.93;8.05;;;;;;;2.27;72.08;101172.45;1719233;83;21598;-71
2021/03/07 05:27:57;;;;;;;13.22;9.53;;;;;;;2.27;72.10;101175.55;1718956;83;21138;-72
2021/03/07 05:30:24;;;;;;;19.95;13.75;;;;;;;2.26;72.13;101169.44;1718810;82;21217;-72
2021/03/07 05:32:52;;;;;;;17.77;12.65;;;;;;;2.25;72.17;101169.55;1718409;83;21181;-71
2021/03/07 05:35:20;;;;;;;17.85;13.22;;;;;;;2.26;72.21;101166.80;1743938;82;21151;-72
2021/03/07 05:37:47;;;;;;;17.82;11.25;;;;;;;2.27;72.24;101171.13;1756401;81;21135;-69
2021/03/07 05:40:13;;;;;;;14.18;7.78;;;;;;;2.29;72.26;101160.02;1756459;81;21561;-69
2021/03/07 05:42:40;;;;;;;12.15;8.58;;;;;;;2.29;72.30;101158.70;1756379;81;21204;-69
2021/03/07 05:45:07;;;;;;;12.35;8.23;;;;;;;2.31;72.30;101163.42;1756331;81;21666;-69
2021/03/07 05:47:33;;;;;;;12.40;7.45;;;;;;;2.31;72.30;101158.16;1756345;81;21152;-69
2021/03/07 05:50:00;;;;;;;11.10;7.28;;;;;;;2.31;72.29;101159.47;1756490;81;21148;-70
2021/03/07 05:52:26;;;;;;;14.85;9.13;;;;;;;2.33;72.28;101155.41;1698656;81;21187;-71
2021/03/07 05:54:53;;;;;;;15.23;9.45;;;;;;;2.33;72.26;101154.94;1756532;81;21205;-71
2021/03/07 05:57:21;;;;;;;15.93;9.20;;;;;;;2.34;72.29;101156.64;1756323;81;21183;-71
2021/03/07 05:59:48;;;;;;;9.78;7.72;;;;;;;2.35;72.24;101158.34;1731988;81;21137;-71
2021/03/07 06:02:15;;;;;;;18.67;13.20;;;;;;;2.36;72.23;101159.16;1726375;83;21110;-71
2021/03/07 06:04:43;;;;;;;17.95;12.20;;;;;;;2.36;72.20;101150.79;1725895;82;21130;-71
2021/03/07 06:07:09;;;;;;;15.50;10.35;;;;;;;2.35;72.20;101153.08;1726333;83;21283;-71
2021/03/07 06:09:36;;;;;;;13.90;10.23;;;;;;;2.35;72.20;101153.08;1726243;83;21169;-70
2021/03/07 06:12:06;;;;;;;13.95;7.20;;;;;;;2.36;72.18;101154.73;1726698;81;21178;-70
2021/03/07 06:14:32;;;;;;;9.73;6.62;;;;;;;2.36;72.16;101151.26;1740752;81;21126;-71
2021/03/07 06:17:07;;;;;;;10.68;7.47;;;;;;;2.36;72.13;101152.11;1737480;81;21434;-71
2021/03/07 06:20:04;;;;;;;12.58;7.72;;;;;;;2.37;72.14;101152.48;1756451;81;21207;-71
2021/03/07 06:22:32;;;;;;;12.60;7.28;;;;;;;2.38;72.09;101150.23;1747162;81;21133;-71
2021/03/07 06:24:59;;;;;;;13.88;7.83;;;;;;;2.37;72.06;101147.23;1738239;81;21190;-71
2021/03/07 06:27:25;;;;;;;15.08;7.97;;;;;;;2.37;72.03;101145.91;1726327;83;21149;-71
2021/03/07 06:30:08;;;;;;;12.45;7.22;;;;;;;2.37;71.97;101145.91;1697660;83;21178;-71
2021/03/07 06:32:37;;;;;;;9.43;6.45;;;;;;;2.36;71.92;101148.16;1726585;83;22203;-72
2021/03/07 06:35:06;;;;;;;11.73;8.53;;;;;;;2.37;71.86;101139.80;1726174;83;21150;-71
2021/03/07 06:37:32;;;;;;;14.75;8.70;;;;;;;2.40;71.80;101150.97;1726633;83;21194;-72
2021/03/07 06:39:59;;;;;;;12.55;8.38;;;;;;;2.40;71.77;101148.34;1726747;83;21133;-72
2021/03/07 06:45:11;;;;;;;75.57;26.27;;;;;;;2.47;71.49;101145.68;1815711;77;22718;-69
2021/03/07 06:47:37;;;;;;;95.70;32.95;;;;;;;2.43;71.21;101138.92;1783199;80;21148;-68
2021/03/07 06:50:13;;;;;;;55.15;16.97;;;;;;;2.44;71.02;101147.20;1787754;80;22048;-71
2021/03/07 06:52:51;;;;;;;22.95;10.05;;;;;;;2.44;70.85;101141.94;1787058;80;21151;-71
2021/03/07 06:55:19;;;;;;;17.75;7.30;;;;;;;2.43;70.56;101142.88;1787071;80;21171;-71
2021/03/07 06:57:45;;;;;;;19.95;7.17;;;;;;;2.45;70.32;101144.95;1787871;79;21119;-71
2021/03/07 07:00:14;;;;;;;21.00;7.22;;;;;;;2.46;70.09;101153.20;1788001;80;21130;-71
2021/03/07 07:02:40;;;;;;;12.30;5.17;;;;;;;2.49;69.95;101154.34;1787804;79;21134;-71
2021/03/07 07:05:09;;;;;;;12.10;5.62;;;;;;;2.48;69.74;101152.64;1732392;80;21149;-71
2021/03/07 07:07:48;;;;;;;18.07;6.80;;;;;;;2.46;69.50;101143.98;1787633;80;21162;-71
2021/03/07 07:10:15;;;;;;;35.17;10.88;;;;;;;2.47;69.36;101139.09;1778942;80;21151;-70
2021/03/07 07:12:41;;;;;;;16.17;6.62;;;;;;;2.47;69.22;101144.36;1756784;81;21612;-71
2021/03/07 07:15:13;;;;;;;14.63;7.30;;;;;;;2.48;69.11;101138.16;1759259;80;21223;-71
2021/03/07 07:17:39;;;;;;;48.65;22.22;;;;;;;2.48;68.99;101138.16;1756556;81;21641;-71
2021/03/07 07:20:07;;;;;;;20.55;9.13;;;;;;;2.48;68.88;101138.63;1748095;81;21158;-71
2021/03/07 07:22:34;;;;;;;15.00;7.10;;;;;;;2.47;68.80;101141.73;1754635;81;21095;-71
2021/03/07 07:25:01;;;;;;;13.48;6.67;;;;;;;2.49;68.74;101131.97;1756480;81;21136;-71
2021/03/07 07:27:27;;;;;;;15.48;6.80;;;;;;;2.49;68.66;101131.97;1756837;80;21197;-71
2021/03/07 07:29:53;;;;;;;15.65;8.78;;;;;;;2.50;68.57;101131.00;1727160;81;21123;-71
2021/03/07 07:32:41;;;;;;;25.60;9.43;;;;;;;2.51;68.51;101132.70;1756565;81;21123;-71
2021/03/07 07:35:17;;;;;;;23.30;8.20;;;;;;;2.53;68.36;101128.66;1756868;81;21211;-71
2021/03/07 07:37:57;;;;;;;12.93;5.15;;;;;;;2.55;68.25;101121.95;1756585;81;21151;-71
2021/03/07 07:40:42;;;;;;;13.32;6.28;;;;;;;2.55;68.09;101112.74;1756616;81;21473;-70
2021/03/07 07:43:10;;;;;;;12.37;5.92;;;;;;;2.53;67.96;101112.36;1756441;80;21162;-70
2021/03/07 07:45:37;;;;;;;10.35;5.92;;;;;;;2.53;67.84;101107.59;1756609;81;21147;-71
2021/03/07 07:48:03;;;;;;;10.98;7.85;;;;;;;2.53;67.75;101115.00;1756583;81;21163;-70
2021/03/07 07:50:35;;;;;;;13.08;6.33;;;;;;;2.51;67.65;101111.63;1734818;81;21148;-71
2021/03/07 07:53:15;;;;;;;15.38;7.85;;;;;;;2.51;67.58;101113.42;1726598;83;21258;-70
2021/03/07 07:55:49;;;;;;;9.30;4.90;;;;;;;2.49;67.47;101113.54;1725974;83;21261;-70
2021/03/07 07:58:41;;;;;;;15.03;6.28;;;;;;;2.49;67.38;101100.84;1725766;83;21167;-70
2021/03/07 08:01:09;;;;;;;34.35;10.75;;;;;;;2.47;67.27;101107.52;1726145;81;21187;-71
2021/03/07 08:03:50;;;;;;;22.70;8.28;;;;;;;2.43;67.08;101095.49;1738755;81;21171;-71
2021/03/07 08:06:31;;;;;;;24.85;11.12;;;;;;;2.41;66.88;101100.03;1756038;81;21210;-70
2021/03/07 08:08:57;;;;;;;6.08;3.80;;;;;;;2.40;66.79;101105.38;1755931;81;21636;-71
2021/03/07 08:11:29;;;;;;;10.08;4.72;;;;;;;2.39;66.57;101104.53;1755916;80;21117;-71
2021/03/07 08:13:59;;;;;;;17.23;7.00;;;;;;;2.39;66.48;101100.58;1755907;81;21156;-71
2021/03/07 08:16:42;;;;;;;16.40;5.00;;;;;;;2.41;66.33;101109.23;1754749;80;21620;-70
2021/03/07 08:19:13;;;;;;;11.88;5.58;;;;;;;2.43;66.20;101104.70;1730432;81;21183;-71
2021/03/07 08:22:07;;;;;;;7.62;4.40;;;;;;;2.42;66.03;101104.36;1751446;81;21150;-71
2021/03/07 08:24:53;;;;;;;9.35;4.30;;;;;;;2.40;65.82;101091.75;1755998;81;21593;-71
2021/03/07 08:27:38;;;;;;;15.13;6.67;;;;;;;2.36;65.51;101095.52;1726009;82;21151;-71
2021/03/07 08:30:15;;;;;;;22.20;7.78;;;;;;;2.36;65.36;101099.47;1737364;81;21131;-71
2021/03/07 08:32:45;;;;;;;10.13;4.45;;;;;;;2.37;65.26;101102.48;1755983;81;22128;-71
2021/03/07 08:35:14;;;;;;;;;;;;;;;2.38;65.09;101097.60;1758654;81;21623;-71
2021/03/07 08:37:40;;;;;;;15.63;6.15;;;;;;;2.38;64.98;101088.39;1740490;81;20276;-71
2021/03/07 08:40:27;;;;;;;11.90;4.60;;;;;;;2.38;64.85;101094.13;1727811;81;21591;-71
2021/03/07 08:42:55;;;;;;;15.18;6.58;;;;;;;2.39;64.77;101094.00;1727500;81;21167;-71
2021/03/07 08:45:22;;;;;;;18.62;6.83;;;;;;;2.40;64.67;101081.69;1754443;80;21197;-71
2021/03/07 08:47:59;;;;;;;26.75;8.78;;;;;;;2.38;64.52;101092.34;1740159;81;21176;-71
2021/03/07 08:50:26;;;;;;;27.98;10.15;;;;;;;2.39;64.45;101095.31;1734282;82;21610;-71
2021/03/07 08:52:54;;;;;;;18.75;7.17;;;;;;;2.39;64.33;101094.00;1734301;82;21197;-71
2021/03/07 08:55:20;;;;;;;9.05;3.80;;;;;;;2.39;64.27;101088.73;1738951;81;21163;-71
2021/03/07 08:57:49;;;;;;;15.95;5.60;;;;;;;2.41;64.22;101088.19;1749356;79;22050;-71
2021/03/07 09:00:17;;;;;;;10.13;3.20;;;;;;;2.40;64.19;101092.22;1750017;79;21186;-71
2021/03/07 09:02:45;;;;;;;19.70;8.25;;;;;;;2.39;64.07;101095.81;1745616;81;21611;-71
2021/03/07 09:05:28;;;;;;;25.37;13.43;;;;;;;2.39;64.04;101096.63;1745866;81;21210;-71
2021/03/07 09:08:12;;;;;;;38.20;10.00;;;;;;;2.47;64.05;101095.66;1831318;77;22757;-71
2021/03/07 09:10:44;;;;;;;21.97;8.45;;;;;;;2.45;64.02;101096.72;1817020;78;21605;-71
2021/03/07 09:13:13;;;;;;;33.75;10.23;;;;;;;2.43;63.94;101094.17;1791554;80;21303;-71
2021/03/07 09:16:03;;;;;;;19.90;7.60;;;;;;;2.45;63.98;101092.77;1793272;78;21644;-71
2021/03/07 09:18:32;;;;;;;16.70;3.85;;;;;;;2.46;63.95;101084.76;1781759;79;21562;-71
2021/03/07 09:21:03;;;;;;;13.90;5.92;;;;;;;2.43;63.87;101082.80;1810037;78;26661;-71
2021/03/07 09:23:37;;;;;;;18.75;9.05;;;;;;;2.42;63.88;101087.25;1805220;78;21128;-70
2021/03/07 09:26:08;;;;;;;35.08;18.12;;;;;;;2.45;63.88;101078.30;1797352;78;21593;-71
2021/03/07 09:28:41;;;;;;;15.32;7.12;;;;;;;2.42;63.82;101072.77;1801575;78;21593;-70
2021/03/07 09:31:11;;;;;;;20.68;9.75;;;;;;;2.46;63.80;101083.94;1816341;79;21032;-70
2021/03/07 09:33:38;;;;;;;20.88;11.90;;;;;;;2.42;63.73;101072.77;1815774;79;21643;-70
2021/03/07 09:36:11;;;;;;;19.98;9.18;;;;;;;2.43;63.70;101088.06;1818475;78;21125;-72
2021/03/07 09:38:54;;;;;;;22.62;11.08;;;;;;;2.43;63.59;101074.91;1786420;80;21167;-70
2021/03/07 09:41:46;;;;;;;95.00;33.83;;;;;;;2.46;63.54;101087.39;1749530;80;21662;-70
2021/03/07 09:44:19;;;;;;;41.45;17.55;;;;;;;2.51;63.48;101074.78;1764792;80;21132;-70
2021/03/07 09:46:48;;;;;;;42.13;17.87;;;;;;;2.60;63.42;101067.22;1725278;82;21207;-70
2021/03/07 09:49:17;;;;;;;31.60;12.90;;;;;;;2.65;63.38;101073.00;1768787;81;21139;-70
2021/03/07 09:51:43;;;;;;;31.25;12.20;;;;;;;2.70;63.31;101070.92;1767209;81;22077;-70
2021/03/07 09:54:12;;;;;;;42.90;17.65;;;;;;;2.69;63.22;101063.95;1766981;81;21179;-70
2021/03/07 09:56:40;;;;;;;56.70;19.73;;;;;;;2.72;63.15;101062.43;1766733;81;21207;-70
2021/03/07 09:59:19;;;;;;;39.42;14.53;;;;;;;2.74;62.97;101057.92;1756780;81;21231;-71
2021/03/07 10:02:00;;;;;;;25.72;10.18;;;;;;;2.76;63.00;101060.81;1730927;81;21176;-71
2021/03/07 10:04:35;;;;;;;12.53;4.50;;;;;;;2.83;62.92;101055.97;1743283;81;21584;-72
2021/03/07 10:07:17;;;;;;;42.53;13.40;;;;;;;2.79;62.77;101059.75;1756615;80;21092;-71
2021/03/07 10:10:04;;;;;;;21.60;8.20;;;;;;;2.78;62.74;101052.83;1751499;80;21112;-71
2021/03/07 10:12:47;;;;;;;14.38;6.22;;;;;;;2.73;62.62;101062.34;1745871;81;21172;-71
2021/03/07 10:15:36;;;;;;;10.08;4.60;;;;;;;2.74;62.56;101056.61;1756619;81;21155;-71
2021/03/07 10:18:18;;;;;;;17.20;5.97;;;;;;;2.75;62.46;101063.53;1725460;81;21657;-70
2021/03/07 10:20:53;;;;;;;12.00;5.35;;;;;;;2.76;62.42;101066.08;1752655;81;21190;-71
2021/03/07 10:23:20;;;;;;;8.43;4.33;;;;;;;2.77;62.28;101066.93;1752540;81;21164;-71
2021/03/07 10:25:47;;;;;;;14.18;5.97;;;;;;;2.76;62.11;101058.65;1752819;81;21155;-71
2021/03/07 10:28:22;;;;;;;17.55;6.90;;;;;;;2.84;62.05;101062.93;1751598;81;21124;-71
2021/03/07 10:30:52;;;;;;;12.35;5.53;;;;;;;2.89;62.01;101046.32;1737983;81;22167;-71
2021/03/07 10:33:27;;;;;;;11.10;4.45;;;;;;;2.92;61.94;101059.31;1731989;81;21206;-71
2021/03/07 10:36:17;;;;;;;23.00;8.50;;;;;;;2.89;61.85;101051.59;1749057;81;21127;-71
2021/03/07 10:38:51;;;;;;;16.73;6.28;;;;;;;2.85;61.80;101049.64;1739969;81;21593;-71
2021/03/07 10:41:32;;;;;;;25.20;6.55;;;;;;;2.90;61.75;101053.28;1743780;81;21216;-71
2021/03/07 10:44:01;;;;;;;13.30;4.12;;;;;;;2.93;61.71;101053.07;1760014;81;21295;-71
2021/03/07 10:46:31;;;;;;;18.37;6.22;;;;;;;2.92;61.57;101047.45;1745546;81;21192;-71
2021/03/07 10:49:00;;;;;;;23.57;8.93;;;;;;;2.90;61.51;101047.55;1729864;83;21171;-71
2021/03/07 10:51:27;;;;;;;13.32;6.50;;;;;;;3.00;61.49;101049.06;1729936;83;21487;-71
2021/03/07 10:53:53;;;;;;;11.48;6.62;;;;;;;3.13;61.48;101043.31;1729968;83;21132;-71
2021/03/07 10:56:20;;;;;;;38.02;13.98;;;;;;;3.18;61.33;101047.80;1729767;82;22143;-71
2021/03/07 10:58:46;;;;;;;24.00;9.63;;;;;;;3.06;61.13;101039.45;1729827;83;21208;-71
2021/03/07 11:01:16;;;;;;;54.10;21.25;;;;;;;2.99;61.02;101040.81;1735102;81;21167;-71
2021/03/07 11:03:42;;;;;;;22.00;6.65;;;;;;;3.02;60.98;101039.28;1741274;81;21214;-71
2021/03/07 11:06:11;;;;;;;11.08;4.67;;;;;;;3.04;60.93;101037.37;1759393;81;21149;-71
2021/03/07 11:08:37;;;;;;;9.83;4.85;;;;;;;3.03;60.84;101041.80;1706473;82;21353;-72
2021/03/07 11:11:05;;;;;;;13.15;6.65;;;;;;;3.05;60.76;101031.63;1732905;82;21577;-72
2021/03/07 11:13:32;;;;;;;12.45;4.97;;;;;;;3.06;60.74;101039.45;1732633;81;21108;-71
2021/03/07 11:15:58;;;;;;;13.93;5.47;;;;;;;3.10;60.70;101030.35;1733013;82;21141;-71
2021/03/07 11:18:25;;;;;;;14.40;6.25;;;;;;;3.05;60.58;101027.69;1732806;82;21570;-71
2021/03/07 11:20:51;;;;;;;19.77;9.33;;;;;;;3.12;60.60;101019.72;1706275;82;21195;-71
2021/03/07 11:23:18;;;;;;;29.67;13.48;;;;;;;3.18;60.54;101024.08;1716293;82;21176;-71
2021/03/07 11:25:44;;;;;;;33.95;15.00;;;;;;;3.23;60.49;101018.03;1729523;83;21581;-71
2021/03/07 11:28:10;;;;;;;33.92;13.65;;;;;;;3.22;60.36;101008.42;1729518;82;21127;-71
2021/03/07 11:30:37;;;;;;;19.87;8.68;;;;;;;3.35;60.34;100996.05;1729535;82;21155;-71
2021/03/07 11:33:04;;;;;;;24.40;8.28;;;;;;;3.45;60.26;100990.95;1732796;82;21198;-71
2021/03/07 11:35:30;;;;;;;27.67;9.85;;;;;;;3.55;60.16;101003.03;1732899;82;21608;-71
2021/03/07 11:37:58;;;;;;;12.50;4.75;;;;;;;3.66;60.14;100993.88;1733480;82;21186;-71
2021/03/07 11:40:25;;;;;;;26.68;12.15;;;;;;;3.74;60.04;100992.81;1732615;82;21151;-71